sensor_id;sensor_type;location;lat;lon;timestamp;pressure;altitude;pressure_sealevel;temperature;humidity
11621;BME280;5866;49.094;11.900;2022-08-01T00:00:45;96052.91;;;23.89;49.91
11621;BME280;5866;49.094;11.900;2022-08-01T00:03:14;96061.38;;;23.76;50.03
11621;BME280;5866;49.094;11.900;2022-08-01T00:05:41;96057.09;;;23.63;50.46
11621;BME280;5866;49.094;11.900;2022-08-01T00:08:10;96053.25;;;23.59;50.72
11621;BME280;5866;49.094;11.900;2022-08-01T00:10:38;96060.03;;;23.12;52.32
11621;BME280;5866;49.094;11.900;2022-08-01T00:13:05;96059.22;;;22.83;53.88
11621;BME280;5866;49.094;11.900;2022-08-01T00:15:35;96053.56;;;22.68;54.33
11621;BME280;5866;49.094;11.900;2022-08-01T00:18:03;96054.06;;;22.82;53.90
11621;BME280;5866;49.094;11.900;2022-08-01T00:20:32;96053.81;;;22.83;54.68
11621;BME280;5866;49.094;11.900;2022-08-01T00:23:02;96055.59;;;22.78;54.63
11621;BME280;5866;49.094;11.900;2022-08-01T00:25:30;96053.16;;;22.76;54.67
11621;BME280;5866;49.094;11.900;2022-08-01T00:27:59;96049.22;;;22.84;54.53
11621;BME280;5866;49.094;11.900;2022-08-01T00:30:27;96048.72;;;22.70;55.39
11621;BME280;5866;49.094;11.900;2022-08-01T00:32:54;96046.59;;;22.72;54.94
11621;BME280;5866;49.094;11.900;2022-08-01T00:35:22;96044.69;;;22.73;55.40
11621;BME280;5866;49.094;11.900;2022-08-01T00:37:51;96042.53;;;22.86;54.78
11621;BME280;5866;49.094;11.900;2022-08-01T00:40:18;96047.09;;;22.86;54.52
11621;BME280;5866;49.094;11.900;2022-08-01T00:42:46;96038.94;;;22.98;53.91
11621;BME280;5866;49.094;11.900;2022-08-01T00:45:13;96042.53;;;22.86;54.66
11621;BME280;5866;49.094;11.900;2022-08-01T00:47:41;96045.09;;;23.10;53.58
11621;BME280;5866;49.094;11.900;2022-08-01T00:50:10;96045.75;;;23.17;53.73
11621;BME280;5866;49.094;11.900;2022-08-01T00:52:38;96035.66;;;22.96;54.30
11621;BME280;5866;49.094;11.900;2022-08-01T00:55:09;96042.97;;;23.12;54.16
11621;BME280;5866;49.094;11.900;2022-08-01T00:57:40;96039.19;;;22.56;56.40
11621;BME280;5866;49.094;11.900;2022-08-01T01:00:28;96041.81;;;21.77;59.75
11621;BME280;5866;49.094;11.900;2022-08-01T01:02:58;96046.28;;;21.36;62.58
11621;BME280;5866;49.094;11.900;2022-08-01T01:05:25;96049.69;;;21.32;62.94
11621;BME280;5866;49.094;11.900;2022-08-01T01:07:56;96048.03;;;21.19;63.77
11621;BME280;5866;49.094;11.900;2022-08-01T01:10:34;96043.25;;;21.45;62.83
11621;BME280;5866;49.094;11.900;2022-08-01T01:13:06;96050.03;;;21.35;63.64
11621;BME280;5866;49.094;11.900;2022-08-01T01:15:40;96043.59;;;21.60;62.18
11621;BME280;5866;49.094;11.900;2022-08-01T01:18:11;96048.75;;;21.73;61.26
11621;BME280;5866;49.094;11.900;2022-08-01T01:20:42;96051.22;;;21.63;62.06
11621;BME280;5866;49.094;11.900;2022-08-01T01:23:21;96060.09;;;21.28;64.57
11621;BME280;5866;49.094;11.900;2022-08-01T01:26:09;96060.22;;;21.10;65.67
11621;BME280;5866;49.094;11.900;2022-08-01T01:31:31;96062.13;;;21.21;64.78
11621;BME280;5866;49.094;11.900;2022-08-01T01:33:59;96067.38;;;21.16;65.11
11621;BME280;5866;49.094;11.900;2022-08-01T01:36:29;96056.38;;;21.29;64.72
11621;BME280;5866;49.094;11.900;2022-08-01T01:38:58;96058.00;;;21.30;63.99
11621;BME280;5866;49.094;11.900;2022-08-01T01:41:28;96053.78;;;21.34;63.93
11621;BME280;5866;49.094;11.900;2022-08-01T01:43:58;96046.28;;;21.36;63.44
11621;BME280;5866;49.094;11.900;2022-08-01T01:46:29;96058.94;;;21.24;63.44
11621;BME280;5866;49.094;11.900;2022-08-01T01:48:59;96049.31;;;21.28;63.21
11621;BME280;5866;49.094;11.900;2022-08-01T01:51:28;96046.75;;;21.33;63.57
11621;BME280;5866;49.094;11.900;2022-08-01T01:53:58;96056.03;;;21.26;63.38
11621;BME280;5866;49.094;11.900;2022-08-01T01:56:27;96057.53;;;21.33;61.64
11621;BME280;5866;49.094;11.900;2022-08-01T01:58:59;96055.88;;;21.32;61.64
11621;BME280;5866;49.094;11.900;2022-08-01T02:01:31;96054.16;;;21.38;61.20
11621;BME280;5866;49.094;11.900;2022-08-01T02:04:20;96058.63;;;21.44;60.55
11621;BME280;5866;49.094;11.900;2022-08-01T02:06:51;96062.72;;;21.47;60.05
11621;BME280;5866;49.094;11.900;2022-08-01T02:09:20;96057.34;;;21.47;60.16
11621;BME280;5866;49.094;11.900;2022-08-01T02:11:49;96058.97;;;21.48;59.87
11621;BME280;5866;49.094;11.900;2022-08-01T02:14:34;96061.31;;;21.44;59.92
11621;BME280;5866;49.094;11.900;2022-08-01T02:17:04;96056.25;;;21.48;59.46
11621;BME280;5866;49.094;11.900;2022-08-01T02:19:32;96062.59;;;21.42;59.48
11621;BME280;5866;49.094;11.900;2022-08-01T02:22:06;96061.19;;;21.39;60.11
11621;BME280;5866;49.094;11.900;2022-08-01T02:24:38;96061.28;;;21.32;59.91
11621;BME280;5866;49.094;11.900;2022-08-01T02:27:08;96060.09;;;21.28;60.14
11621;BME280;5866;49.094;11.900;2022-08-01T02:29:38;96062.31;;;21.20;60.54
11621;BME280;5866;49.094;11.900;2022-08-01T02:32:11;96067.97;;;21.18;61.21
11621;BME280;5866;49.094;11.900;2022-08-01T02:34:41;96068.28;;;21.10;61.71
11621;BME280;5866;49.094;11.900;2022-08-01T02:37:11;96061.63;;;21.13;61.09
11621;BME280;5866;49.094;11.900;2022-08-01T02:39:39;96069.56;;;21.08;61.56
11621;BME280;5866;49.094;11.900;2022-08-01T02:42:08;96068.00;;;21.00;61.67
11621;BME280;5866;49.094;11.900;2022-08-01T02:44:41;96076.25;;;21.05;61.40
11621;BME280;5866;49.094;11.900;2022-08-01T02:47:12;96079.22;;;21.15;61.45
11621;BME280;5866;49.094;11.900;2022-08-01T02:49:42;96069.63;;;21.01;61.89
11621;BME280;5866;49.094;11.900;2022-08-01T02:52:13;96077.47;;;20.91;62.42
11621;BME280;5866;49.094;11.900;2022-08-01T02:54:43;96081.81;;;20.92;62.83
11621;BME280;5866;49.094;11.900;2022-08-01T02:57:12;96086.47;;;20.85;63.62
11621;BME280;5866;49.094;11.900;2022-08-01T02:59:45;96075.69;;;20.85;63.67
11621;BME280;5866;49.094;11.900;2022-08-01T03:02:16;96082.28;;;20.89;63.63
11621;BME280;5866;49.094;11.900;2022-08-01T03:04:45;96081.22;;;20.90;63.34
11621;BME280;5866;49.094;11.900;2022-08-01T03:07:13;96075.84;;;20.90;63.86
11621;BME280;5866;49.094;11.900;2022-08-01T03:09:45;96079.44;;;20.84;64.17
11621;BME280;5866;49.094;11.900;2022-08-01T03:12:15;96080.66;;;20.88;64.00
11621;BME280;5866;49.094;11.900;2022-08-01T03:14:46;96086.63;;;20.90;64.02
11621;BME280;5866;49.094;11.900;2022-08-01T03:17:18;96089.31;;;20.90;64.54
11621;BME280;5866;49.094;11.900;2022-08-01T03:19:48;96097.28;;;20.85;64.90
11621;BME280;5866;49.094;11.900;2022-08-01T03:22:17;96087.81;;;20.94;64.92
11621;BME280;5866;49.094;11.900;2022-08-01T03:24:47;96086.47;;;20.85;65.18
11621;BME280;5866;49.094;11.900;2022-08-01T03:27:18;96090.38;;;20.89;64.68
11621;BME280;5866;49.094;11.900;2022-08-01T03:29:47;96091.88;;;20.85;65.18
11621;BME280;5866;49.094;11.900;2022-08-01T03:32:18;96095.94;;;20.76;65.74
11621;BME280;5866;49.094;11.900;2022-08-01T03:34:47;96088.75;;;20.70;66.19
11621;BME280;5866;49.094;11.900;2022-08-01T03:37:19;96096.59;;;20.72;66.86
11621;BME280;5866;49.094;11.900;2022-08-01T03:39:50;96095.38;;;20.56;67.99
11621;BME280;5866;49.094;11.900;2022-08-01T03:42:20;96109.81;;;20.62;68.16
11621;BME280;5866;49.094;11.900;2022-08-01T03:44:53;96100.63;;;20.51;68.80
11621;BME280;5866;49.094;11.900;2022-08-01T03:47:26;96105.66;;;20.47;69.75
11621;BME280;5866;49.094;11.900;2022-08-01T03:49:57;96105.22;;;20.50;69.24
11621;BME280;5866;49.094;11.900;2022-08-01T03:52:27;96114.47;;;20.54;69.67
11621;BME280;5866;49.094;11.900;2022-08-01T03:54:58;96107.31;;;20.48;70.53
11621;BME280;5866;49.094;11.900;2022-08-01T03:57:27;96106.41;;;20.54;69.71
11621;BME280;5866;49.094;11.900;2022-08-01T04:00:04;96112.00;;;20.53;70.58
11621;BME280;5866;49.094;11.900;2022-08-01T04:02:34;96112.59;;;20.55;70.46
11621;BME280;5866;49.094;11.900;2022-08-01T04:05:03;96117.03;;;20.49;70.90
11621;BME280;5866;49.094;11.900;2022-08-01T04:07:32;96119.03;;;20.54;71.17
11621;BME280;5866;49.094;11.900;2022-08-01T04:10:02;96124.13;;;20.62;71.14
11621;BME280;5866;49.094;11.900;2022-08-01T04:12:30;96118.41;;;20.88;70.34
11621;BME280;5866;49.094;11.900;2022-08-01T04:14:58;96130.25;;;20.99;68.85
11621;BME280;5866;49.094;11.900;2022-08-01T04:17:26;96122.97;;;20.99;69.24
11621;BME280;5866;49.094;11.900;2022-08-01T04:19:55;96131.66;;;21.19;68.27
11621;BME280;5866;49.094;11.900;2022-08-01T04:22:22;96122.09;;;21.05;69.23
11621;BME280;5866;49.094;11.900;2022-08-01T04:24:53;96127.75;;;21.57;66.57
11621;BME280;5866;49.094;11.900;2022-08-01T04:27:25;96129.13;;;21.48;66.14
11621;BME280;5866;49.094;11.900;2022-08-01T04:30:16;96132.09;;;21.05;69.12
11621;BME280;5866;49.094;11.900;2022-08-01T04:32:46;96134.56;;;20.88;70.81
11621;BME280;5866;49.094;11.900;2022-08-01T04:35:18;96130.63;;;20.73;72.30
11621;BME280;5866;49.094;11.900;2022-08-01T04:38:08;96139.31;;;20.75;72.52
11621;BME280;5866;49.094;11.900;2022-08-01T04:40:36;96137.19;;;20.77;72.71
11621;BME280;5866;49.094;11.900;2022-08-01T04:43:04;96147.63;;;20.73;73.86
11621;BME280;5866;49.094;11.900;2022-08-01T04:45:33;96148.13;;;20.82;73.40
11621;BME280;5866;49.094;11.900;2022-08-01T04:48:01;96154.72;;;20.68;73.78
11621;BME280;5866;49.094;11.900;2022-08-01T04:50:34;96153.88;;;21.03;72.32
11621;BME280;5866;49.094;11.900;2022-08-01T04:53:02;96156.19;;;21.29;70.64
11621;BME280;5866;49.094;11.900;2022-08-01T04:55:30;96165.75;;;21.96;66.73
11621;BME280;5866;49.094;11.900;2022-08-01T04:57:58;96163.47;;;22.74;62.21
11621;BME280;5866;49.094;11.900;2022-08-01T05:00:26;96168.75;;;22.58;63.33
11621;BME280;5866;49.094;11.900;2022-08-01T05:02:56;96154.00;;;22.88;61.99
11621;BME280;5866;49.094;11.900;2022-08-01T05:05:24;96171.91;;;23.46;59.52
11621;BME280;5866;49.094;11.900;2022-08-01T05:07:53;96164.44;;;23.25;60.10
11621;BME280;5866;49.094;11.900;2022-08-01T05:10:22;96176.28;;;22.67;62.49
11621;BME280;5866;49.094;11.900;2022-08-01T05:12:49;96183.47;;;22.04;65.36
11621;BME280;5866;49.094;11.900;2022-08-01T05:15:17;96182.88;;;21.90;67.58
11621;BME280;5866;49.094;11.900;2022-08-01T05:17:44;96181.94;;;21.96;67.05
11621;BME280;5866;49.094;11.900;2022-08-01T05:20:13;96182.16;;;21.83;69.51
11621;BME280;5866;49.094;11.900;2022-08-01T05:22:40;96189.91;;;21.39;72.49
11621;BME280;5866;49.094;11.900;2022-08-01T05:25:10;96186.53;;;21.55;72.61
11621;BME280;5866;49.094;11.900;2022-08-01T05:27:45;96188.91;;;21.63;72.21
11621;BME280;5866;49.094;11.900;2022-08-01T05:30:14;96189.00;;;21.45;73.65
11621;BME280;5866;49.094;11.900;2022-08-01T05:32:42;96196.81;;;21.76;72.14
11621;BME280;5866;49.094;11.900;2022-08-01T05:35:09;96191.94;;;21.66;72.42
11621;BME280;5866;49.094;11.900;2022-08-01T05:37:37;96191.00;;;21.61;74.44
11621;BME280;5866;49.094;11.900;2022-08-01T05:40:05;96200.94;;;21.78;75.07
11621;BME280;5866;49.094;11.900;2022-08-01T05:42:34;96193.69;;;22.02;72.90
11621;BME280;5866;49.094;11.900;2022-08-01T05:45:02;96197.91;;;22.67;69.26
11621;BME280;5866;49.094;11.900;2022-08-01T05:47:30;96200.94;;;22.71;68.38
11621;BME280;5866;49.094;11.900;2022-08-01T05:49:57;96194.72;;;23.50;63.70
11621;BME280;5866;49.094;11.900;2022-08-01T05:52:25;96198.84;;;23.69;64.10
11621;BME280;5866;49.094;11.900;2022-08-01T05:54:53;96195.94;;;24.97;58.71
11621;BME280;5866;49.094;11.900;2022-08-01T05:57:20;96202.94;;;25.14;57.65
11621;BME280;5866;49.094;11.900;2022-08-01T05:59:49;96197.47;;;24.88;57.74
11621;BME280;5866;49.094;11.900;2022-08-01T06:02:16;96197.06;;;25.44;55.28
11621;BME280;5866;49.094;11.900;2022-08-01T06:04:44;96198.91;;;25.17;57.15
11621;BME280;5866;49.094;11.900;2022-08-01T06:07:12;96194.41;;;25.76;54.43
11621;BME280;5866;49.094;11.900;2022-08-01T06:09:39;96198.88;;;25.60;55.24
11621;BME280;5866;49.094;11.900;2022-08-01T06:12:07;96202.94;;;24.93;57.94
11621;BME280;5866;49.094;11.900;2022-08-01T06:14:34;96209.03;;;24.45;60.29
11621;BME280;5866;49.094;11.900;2022-08-01T06:17:03;96205.41;;;24.56;59.19
11621;BME280;5866;49.094;11.900;2022-08-01T06:19:31;96213.69;;;24.83;58.40
11621;BME280;5866;49.094;11.900;2022-08-01T06:21:58;96214.38;;;25.38;57.27
11621;BME280;5866;49.094;11.900;2022-08-01T06:24:26;96217.34;;;26.17;54.56
11621;BME280;5866;49.094;11.900;2022-08-01T06:26:53;96220.56;;;27.39;50.75
11621;BME280;5866;49.094;11.900;2022-08-01T06:29:21;96214.03;;;26.83;50.62
11621;BME280;5866;49.094;11.900;2022-08-01T06:31:48;96213.75;;;27.41;49.68
11621;BME280;5866;49.094;11.900;2022-08-01T06:34:17;96211.19;;;25.99;53.86
11621;BME280;5866;49.094;11.900;2022-08-01T06:36:45;96228.56;;;24.80;57.83
11621;BME280;5866;49.094;11.900;2022-08-01T06:39:12;96234.66;;;25.09;58.30
11621;BME280;5866;49.094;11.900;2022-08-01T06:41:40;96216.56;;;24.60;59.25
11621;BME280;5866;49.094;11.900;2022-08-01T06:44:08;96230.09;;;25.36;58.40
11621;BME280;5866;49.094;11.900;2022-08-01T06:46:35;96220.56;;;25.12;59.40
11621;BME280;5866;49.094;11.900;2022-08-01T06:49:03;96223.91;;;26.21;55.19
11621;BME280;5866;49.094;11.900;2022-08-01T06:51:32;96224.28;;;25.06;58.49
11621;BME280;5866;49.094;11.900;2022-08-01T06:53:59;96222.00;;;26.21;54.80
11621;BME280;5866;49.094;11.900;2022-08-01T06:56:27;96233.47;;;26.60;54.61
11621;BME280;5866;49.094;11.900;2022-08-01T06:58:55;96223.31;;;25.60;56.17
11621;BME280;5866;49.094;11.900;2022-08-01T07:01:27;96232.22;;;24.91;59.55
11621;BME280;5866;49.094;11.900;2022-08-01T07:03:55;96243.75;;;24.10;62.23
11621;BME280;5866;49.094;11.900;2022-08-01T07:06:22;96245.06;;;24.07;63.92
11621;BME280;5866;49.094;11.900;2022-08-01T07:08:52;96240.28;;;25.72;58.50
11621;BME280;5866;49.094;11.900;2022-08-01T07:11:22;96237.28;;;27.11;53.70
11621;BME280;5866;49.094;11.900;2022-08-01T07:13:49;96237.09;;;27.22;51.95
11621;BME280;5866;49.094;11.900;2022-08-01T07:16:17;96239.63;;;25.60;55.94
11621;BME280;5866;49.094;11.900;2022-08-01T07:18:44;96248.63;;;24.79;59.31
11621;BME280;5866;49.094;11.900;2022-08-01T07:21:12;96244.72;;;24.04;63.12
11621;BME280;5866;49.094;11.900;2022-08-01T07:24:01;96247.03;;;23.39;67.84
11621;BME280;5866;49.094;11.900;2022-08-01T07:26:40;96254.75;;;24.20;64.00
11621;BME280;5866;49.094;11.900;2022-08-01T07:29:20;96245.44;;;25.47;57.95
11621;BME280;5866;49.094;11.900;2022-08-01T07:31:48;96252.66;;;25.15;58.60
11621;BME280;5866;49.094;11.900;2022-08-01T07:34:15;96243.78;;;24.65;62.25
11621;BME280;5866;49.094;11.900;2022-08-01T07:36:44;96239.22;;;25.47;57.89
11621;BME280;5866;49.094;11.900;2022-08-01T07:39:13;96248.97;;;24.50;62.84
11621;BME280;5866;49.094;11.900;2022-08-01T07:41:40;96237.56;;;25.02;60.07
11621;BME280;5866;49.094;11.900;2022-08-01T07:44:28;96247.19;;;25.58;58.01
11621;BME280;5866;49.094;11.900;2022-08-01T07:46:55;96244.44;;;25.53;58.89
11621;BME280;5866;49.094;11.900;2022-08-01T07:49:22;96238.72;;;25.76;57.06
11621;BME280;5866;49.094;11.900;2022-08-01T07:51:50;96249.19;;;25.41;59.92
11621;BME280;5866;49.094;11.900;2022-08-01T07:54:30;96239.59;;;25.55;58.58
11621;BME280;5866;49.094;11.900;2022-08-01T07:57:00;96243.81;;;25.73;57.79
11621;BME280;5866;49.094;11.900;2022-08-01T07:59:28;96255.63;;;25.83;56.95
11621;BME280;5866;49.094;11.900;2022-08-01T08:01:55;96238.94;;;25.27;59.10
11621;BME280;5866;49.094;11.900;2022-08-01T08:04:23;96252.56;;;25.10;59.63
11621;BME280;5866;49.094;11.900;2022-08-01T08:06:50;96237.63;;;24.69;61.47
11621;BME280;5866;49.094;11.900;2022-08-01T08:09:19;96250.88;;;25.47;58.29
11621;BME280;5866;49.094;11.900;2022-08-01T08:11:48;96246.69;;;24.58;62.36
11621;BME280;5866;49.094;11.900;2022-08-01T08:14:17;96228.59;;;25.02;61.11
11621;BME280;5866;49.094;11.900;2022-08-01T08:16:45;96244.84;;;25.67;58.19
11621;BME280;5866;49.094;11.900;2022-08-01T08:19:12;96241.03;;;26.16;57.55
11621;BME280;5866;49.094;11.900;2022-08-01T08:21:41;96241.75;;;25.85;57.38
11621;BME280;5866;49.094;11.900;2022-08-01T08:24:09;96241.59;;;25.00;60.67
11621;BME280;5866;49.094;11.900;2022-08-01T08:26:56;96241.94;;;27.15;53.13
11621;BME280;5866;49.094;11.900;2022-08-01T08:29:25;96231.81;;;27.68;51.59
11621;BME280;5866;49.094;11.900;2022-08-01T08:31:53;96228.22;;;26.90;51.49
11621;BME280;5866;49.094;11.900;2022-08-01T08:34:23;96239.78;;;26.70;53.22
11621;BME280;5866;49.094;11.900;2022-08-01T08:36:51;96236.81;;;28.11;49.78
11621;BME280;5866;49.094;11.900;2022-08-01T08:39:20;96237.25;;;27.63;49.22
11621;BME280;5866;49.094;11.900;2022-08-01T08:41:47;96240.47;;;26.19;52.71
11621;BME280;5866;49.094;11.900;2022-08-01T08:44:17;96250.63;;;25.27;57.34
11621;BME280;5866;49.094;11.900;2022-08-01T08:46:47;96249.38;;;25.13;57.65
11621;BME280;5866;49.094;11.900;2022-08-01T08:49:17;96246.31;;;25.31;57.83
11621;BME280;5866;49.094;11.900;2022-08-01T08:51:48;96239.81;;;26.07;56.07
11621;BME280;5866;49.094;11.900;2022-08-01T08:54:17;96246.47;;;26.21;55.93
11621;BME280;5866;49.094;11.900;2022-08-01T08:56:46;96237.38;;;28.23;49.48
11621;BME280;5866;49.094;11.900;2022-08-01T08:59:14;96240.38;;;28.42;48.27
11621;BME280;5866;49.094;11.900;2022-08-01T09:01:43;96246.03;;;29.16;45.01
11621;BME280;5866;49.094;11.900;2022-08-01T09:04:11;96239.00;;;28.54;47.30
11621;BME280;5866;49.094;11.900;2022-08-01T09:06:39;96247.22;;;28.34;47.78
11621;BME280;5866;49.094;11.900;2022-08-01T09:09:07;96246.13;;;28.60;49.19
11621;BME280;5866;49.094;11.900;2022-08-01T09:11:36;96251.47;;;27.85;48.26
11621;BME280;5866;49.094;11.900;2022-08-01T09:14:07;96252.84;;;27.15;49.06
11621;BME280;5866;49.094;11.900;2022-08-01T09:16:38;96255.72;;;27.35;48.87
11621;BME280;5866;49.094;11.900;2022-08-01T09:19:16;96250.94;;;27.83;48.83
11621;BME280;5866;49.094;11.900;2022-08-01T09:22:06;96252.22;;;25.98;51.52
11621;BME280;5866;49.094;11.900;2022-08-01T09:24:36;96261.69;;;26.17;52.22
11621;BME280;5866;49.094;11.900;2022-08-01T09:27:16;96252.84;;;26.05;49.51
11621;BME280;5866;49.094;11.900;2022-08-01T09:29:47;96244.22;;;27.33;46.74
11621;BME280;5866;49.094;11.900;2022-08-01T09:32:28;96239.53;;;28.01;45.38
11621;BME280;5866;49.094;11.900;2022-08-01T09:35:24;96236.53;;;28.53;45.03
11621;BME280;5866;49.094;11.900;2022-08-01T09:38:16;96248.22;;;28.93;43.21
11621;BME280;5866;49.094;11.900;2022-08-01T09:40:50;96245.47;;;29.03;43.17
11621;BME280;5866;49.094;11.900;2022-08-01T09:43:18;96265.28;;;27.53;45.65
11621;BME280;5866;49.094;11.900;2022-08-01T09:45:46;96249.03;;;27.93;45.26
11621;BME280;5866;49.094;11.900;2022-08-01T09:48:19;96251.34;;;27.44;46.83
11621;BME280;5866;49.094;11.900;2022-08-01T09:50:55;96257.53;;;28.87;42.51
11621;BME280;5866;49.094;11.900;2022-08-01T09:53:40;96240.84;;;30.17;40.75
11621;BME280;5866;49.094;11.900;2022-08-01T09:56:17;96242.75;;;30.84;39.51
11621;BME280;5866;49.094;11.900;2022-08-01T09:58:49;96242.97;;;31.63;38.53
11621;BME280;5866;49.094;11.900;2022-08-01T10:01:25;96225.28;;;31.93;36.80
11621;BME280;5866;49.094;11.900;2022-08-01T10:04:08;96236.34;;;31.22;38.28
11621;BME280;5866;49.094;11.900;2022-08-01T10:06:39;96242.31;;;30.43;38.24
11621;BME280;5866;49.094;11.900;2022-08-01T10:09:09;96246.09;;;30.08;39.36
11621;BME280;5866;49.094;11.900;2022-08-01T10:11:41;96239.56;;;28.61;41.75
11621;BME280;5866;49.094;11.900;2022-08-01T10:14:10;96231.38;;;28.31;42.82
11621;BME280;5866;49.094;11.900;2022-08-01T10:16:45;96235.66;;;27.82;43.35
11621;BME280;5866;49.094;11.900;2022-08-01T10:19:23;96230.78;;;27.99;43.43
11621;BME280;5866;49.094;11.900;2022-08-01T10:21:56;96247.75;;;26.82;46.65
11621;BME280;5866;49.094;11.900;2022-08-01T10:24:28;96242.69;;;26.59;46.65
11621;BME280;5866;49.094;11.900;2022-08-01T10:26:58;96238.50;;;26.10;48.08
11621;BME280;5866;49.094;11.900;2022-08-01T10:29:39;96238.44;;;26.36;48.72
11621;BME280;5866;49.094;11.900;2022-08-01T10:32:27;96236.44;;;25.95;49.85
11621;BME280;5866;49.094;11.900;2022-08-01T10:34:55;96236.97;;;25.65;49.86
11621;BME280;5866;49.094;11.900;2022-08-01T10:37:25;96235.59;;;25.41;50.86
11621;BME280;5866;49.094;11.900;2022-08-01T10:39:54;96237.38;;;25.52;51.58
11621;BME280;5866;49.094;11.900;2022-08-01T10:42:43;96235.38;;;26.28;49.46
11621;BME280;5866;49.094;11.900;2022-08-01T10:45:13;96227.56;;;26.05;48.63
11621;BME280;5866;49.094;11.900;2022-08-01T10:47:45;96228.06;;;26.70;47.60
11621;BME280;5866;49.094;11.900;2022-08-01T10:50:19;96221.50;;;28.80;44.03
11621;BME280;5866;49.094;11.900;2022-08-01T10:53:09;96217.47;;;28.27;44.21
11621;BME280;5866;49.094;11.900;2022-08-01T10:55:50;96212.16;;;26.52;46.70
11621;BME280;5866;49.094;11.900;2022-08-01T10:58:25;96229.81;;;26.81;47.28
11621;BME280;5866;49.094;11.900;2022-08-01T11:01:15;96224.75;;;27.87;44.44
11621;BME280;5866;49.094;11.900;2022-08-01T11:03:57;96220.66;;;27.84;44.05
11621;BME280;5866;49.094;11.900;2022-08-01T11:06:36;96226.91;;;27.03;45.75
11621;BME280;5866;49.094;11.900;2022-08-01T11:09:21;96213.38;;;28.65;43.00
11621;BME280;5866;49.094;11.900;2022-08-01T11:12:05;96212.72;;;30.74;39.40
11621;BME280;5866;49.094;11.900;2022-08-01T11:15:17;96210.09;;;28.33;41.16
11621;BME280;5866;49.094;11.900;2022-08-01T11:17:57;96208.47;;;28.17;41.95
11621;BME280;5866;49.094;11.900;2022-08-01T11:20:28;96206.19;;;27.69;42.90
11621;BME280;5866;49.094;11.900;2022-08-01T11:23:25;96207.56;;;27.04;45.01
11621;BME280;5866;49.094;11.900;2022-08-01T11:26:12;96213.56;;;26.23;46.38
11621;BME280;5866;49.094;11.900;2022-08-01T11:28:44;96212.19;;;26.57;46.58
11621;BME280;5866;49.094;11.900;2022-08-01T11:31:33;96211.31;;;26.83;46.01
11621;BME280;5866;49.094;11.900;2022-08-01T11:34:03;96209.53;;;28.16;44.78
11621;BME280;5866;49.094;11.900;2022-08-01T11:36:31;96212.00;;;28.07;44.54
11621;BME280;5866;49.094;11.900;2022-08-01T11:39:19;96207.34;;;28.48;44.77
11621;BME280;5866;49.094;11.900;2022-08-01T11:41:48;96212.81;;;28.28;44.11
11621;BME280;5866;49.094;11.900;2022-08-01T11:44:21;96210.63;;;28.20;44.66
11621;BME280;5866;49.094;11.900;2022-08-01T11:47:00;96205.06;;;27.49;45.19
11621;BME280;5866;49.094;11.900;2022-08-01T11:49:46;96208.00;;;26.76;46.34
11621;BME280;5866;49.094;11.900;2022-08-01T11:52:18;96218.00;;;26.29;48.24
11621;BME280;5866;49.094;11.900;2022-08-01T11:54:48;96218.66;;;25.82;48.68
11621;BME280;5866;49.094;11.900;2022-08-01T11:57:20;96227.34;;;26.43;48.58
11621;BME280;5866;49.094;11.900;2022-08-01T11:59:50;96218.31;;;26.74;47.23
11621;BME280;5866;49.094;11.900;2022-08-01T12:02:31;96209.81;;;26.65;47.55
11621;BME280;5866;49.094;11.900;2022-08-01T12:05:02;96214.69;;;27.05;46.91
11621;BME280;5866;49.094;11.900;2022-08-01T12:07:32;96215.47;;;27.63;45.43
11621;BME280;5866;49.094;11.900;2022-08-01T12:10:02;96203.94;;;29.75;41.38
11621;BME280;5866;49.094;11.900;2022-08-01T12:12:33;96201.78;;;29.62;40.52
11621;BME280;5866;49.094;11.900;2022-08-01T12:15:03;96192.28;;;29.50;41.04
11621;BME280;5866;49.094;11.900;2022-08-01T12:17:36;96194.78;;;28.37;43.19
11621;BME280;5866;49.094;11.900;2022-08-01T12:20:06;96203.47;;;27.69;44.71
11621;BME280;5866;49.094;11.900;2022-08-01T12:22:35;96204.09;;;28.06;43.50
11621;BME280;5866;49.094;11.900;2022-08-01T12:25:07;96198.63;;;28.36;43.41
11621;BME280;5866;49.094;11.900;2022-08-01T12:27:37;96198.56;;;27.66;44.33
11621;BME280;5866;49.094;11.900;2022-08-01T12:30:06;96206.06;;;27.28;46.73
11621;BME280;5866;49.094;11.900;2022-08-01T12:32:36;96206.22;;;27.79;44.97
11621;BME280;5866;49.094;11.900;2022-08-01T12:35:05;96206.81;;;28.26;43.21
11621;BME280;5866;49.094;11.900;2022-08-01T12:37:35;96203.53;;;28.14;43.62
11621;BME280;5866;49.094;11.900;2022-08-01T12:40:09;96210.78;;;27.53;45.17
11621;BME280;5866;49.094;11.900;2022-08-01T12:42:39;96212.25;;;28.01;45.18
11621;BME280;5866;49.094;11.900;2022-08-01T12:45:09;96201.91;;;28.18;43.31
11621;BME280;5866;49.094;11.900;2022-08-01T12:47:38;96202.50;;;29.83;40.76
11621;BME280;5866;49.094;11.900;2022-08-01T12:50:08;96200.81;;;30.26;38.96
11621;BME280;5866;49.094;11.900;2022-08-01T12:52:37;96196.13;;;31.78;37.82
11621;BME280;5866;49.094;11.900;2022-08-01T12:55:08;96178.19;;;33.55;34.19
11621;BME280;5866;49.094;11.900;2022-08-01T12:57:39;96177.22;;;33.74;33.05
11621;BME280;5866;49.094;11.900;2022-08-01T13:00:14;96181.16;;;34.61;33.03
11621;BME280;5866;49.094;11.900;2022-08-01T13:02:43;96175.25;;;32.33;34.09
11621;BME280;5866;49.094;11.900;2022-08-01T13:05:12;96169.50;;;30.08;37.08
11621;BME280;5866;49.094;11.900;2022-08-01T13:07:46;96171.94;;;29.27;38.23
11621;BME280;5866;49.094;11.900;2022-08-01T13:10:23;96168.72;;;30.41;36.81
11621;BME280;5866;49.094;11.900;2022-08-01T13:12:53;96148.47;;;31.13;35.32
11621;BME280;5866;49.094;11.900;2022-08-01T13:15:31;96162.69;;;31.76;33.86
11621;BME280;5866;49.094;11.900;2022-08-01T13:18:01;96158.75;;;30.50;35.76
11621;BME280;5866;49.094;11.900;2022-08-01T13:20:31;96163.78;;;29.66;37.25
11621;BME280;5866;49.094;11.900;2022-08-01T13:23:13;96150.38;;;29.11;37.35
11621;BME280;5866;49.094;11.900;2022-08-01T13:26:00;96161.69;;;30.30;36.32